createdAt,value
2023-02-04T00:04:43.139Z,7.13
2023-02-04T00:09:47.377Z,7.12
2023-02-04T00:14:51.799Z,7.10
2023-02-04T00:19:54.842Z,7.09
2023-02-04T00:24:58.048Z,7.10
2023-02-04T00:30:02.380Z,6.99
2023-02-04T00:35:05.677Z,6.89
2023-02-04T00:40:09.946Z,6.94
2023-02-04T00:45:16.441Z,6.99
2023-02-04T00:50:20.672Z,7.02
2023-02-04T00:55:23.686Z,6.96
2023-02-04T01:00:28.450Z,6.99
2023-02-04T01:05:31.611Z,6.97
2023-02-04T01:10:34.777Z,6.91
2023-02-04T01:15:39.600Z,6.86
2023-02-04T01:20:42.731Z,6.78
2023-02-04T01:25:45.846Z,6.63
2023-02-04T01:30:50.454Z,6.51
2023-02-04T01:35:53.663Z,6.49
2023-02-04T01:40:57.285Z,6.40
2023-02-04T01:46:02.642Z,6.33
2023-02-04T01:51:08.765Z,6.36
2023-02-04T01:56:18.745Z,6.29
2023-02-04T02:01:38.455Z,6.32
2023-02-04T02:06:45.392Z,6.29
2023-02-04T02:11:49.119Z,6.36
2023-02-04T02:16:53.736Z,6.33
2023-02-04T02:22:05.205Z,6.29
2023-02-04T02:27:12.634Z,6.51
2023-02-04T02:32:16.707Z,6.47
2023-02-04T02:37:19.841Z,6.48
2023-02-04T02:42:24.810Z,6.40
2023-02-04T02:47:28.420Z,6.31
2023-02-04T02:52:31.601Z,6.30
2023-02-04T02:57:36.243Z,6.31
2023-02-04T03:02:39.752Z,6.34
2023-02-04T03:07:42.914Z,6.40
2023-02-04T03:12:48.950Z,6.45
2023-02-04T03:17:56.482Z,6.39
2023-02-04T03:22:59.878Z,6.40
2023-02-04T03:28:05.464Z,6.39
2023-02-04T03:33:08.585Z,6.31
2023-02-04T03:38:11.591Z,6.23
2023-02-04T03:43:16.217Z,6.11
2023-02-04T03:48:19.732Z,6.00
2023-02-04T03:53:23.163Z,5.93
2023-02-04T03:58:27.651Z,5.81
2023-02-04T04:03:30.776Z,5.84
2023-02-04T04:08:34.531Z,5.92
2023-02-04T04:13:38.839Z,5.93
2023-02-04T04:18:42.090Z,5.94
2023-02-04T04:23:45.113Z,5.93
2023-02-04T04:28:49.418Z,5.72
2023-02-04T04:33:52.390Z,5.58
2023-02-04T04:38:55.375Z,5.63
2023-02-04T04:43:59.842Z,5.65
2023-02-04T04:49:02.817Z,5.69
2023-02-04T04:54:05.972Z,5.72
2023-02-04T04:59:10.460Z,5.83
2023-02-04T05:04:13.407Z,5.73
2023-02-04T05:09:17.501Z,5.79
2023-02-04T05:14:22.103Z,5.78
2023-02-04T05:19:25.467Z,5.92
2023-02-04T05:24:28.793Z,6.03
2023-02-04T05:29:33.269Z,6.06
2023-02-04T05:34:36.451Z,6.12
2023-02-04T05:39:39.386Z,6.24
2023-02-04T05:44:43.787Z,6.34
2023-02-04T05:49:46.890Z,6.41
2023-02-04T05:54:50.058Z,6.45
2023-02-04T05:59:54.387Z,6.50
2023-02-04T06:04:57.382Z,6.54
2023-02-04T06:10:00.535Z,6.54
2023-02-04T06:15:05.587Z,6.59
2023-02-04T06:20:10.077Z,6.57
2023-02-04T06:25:13.142Z,6.44
2023-02-04T06:30:18.230Z,6.40
2023-02-04T06:35:21.256Z,6.47
2023-02-04T06:40:24.204Z,6.54
2023-02-04T06:45:28.635Z,6.61
2023-02-04T06:50:31.768Z,6.69
2023-02-04T06:55:35.007Z,6.72
2023-02-04T07:00:39.448Z,6.78
2023-02-04T07:05:42.418Z,6.78
2023-02-04T07:10:45.416Z,6.79
2023-02-04T07:15:49.906Z,6.85
2023-02-04T07:20:53.029Z,6.83
2023-02-04T07:25:57.460Z,6.93
2023-02-04T07:31:02.052Z,6.90
2023-02-04T07:36:05.532Z,6.95
2023-02-04T07:41:08.471Z,6.99
2023-02-04T07:46:13.041Z,6.98
2023-02-04T07:51:16.265Z,7.02
2023-02-04T07:56:19.299Z,7.13
2023-02-04T08:01:23.737Z,7.15
2023-02-04T08:06:26.950Z,7.25
2023-02-04T08:11:29.969Z,7.33
2023-02-04T08:16:34.408Z,7.38
2023-02-04T08:21:37.547Z,7.51
2023-02-04T08:26:40.778Z,7.62
2023-02-04T08:31:47.814Z,7.69
2023-02-04T08:36:50.873Z,7.77
2023-02-04T08:41:53.825Z,7.92
2023-02-04T08:46:58.218Z,8.04
2023-02-04T08:52:02.980Z,8.17
2023-02-04T08:57:06.055Z,8.30
2023-02-04T09:02:11.632Z,8.38
2023-02-04T09:07:14.758Z,8.56
2023-02-04T09:12:17.920Z,8.69
2023-02-04T09:17:22.544Z,8.70
2023-02-04T09:22:25.690Z,8.77
2023-02-04T09:27:29.005Z,8.81
2023-02-04T09:32:33.319Z,8.76
2023-02-04T09:37:36.561Z,8.88
2023-02-04T09:42:39.958Z,9.03
2023-02-04T09:47:44.424Z,9.02
2023-02-04T09:52:50.490Z,9.03
2023-02-04T09:57:53.808Z,9.19
2023-02-04T10:03:00.105Z,9.25
2023-02-04T10:08:03.134Z,9.50
2023-02-04T10:13:08.469Z,9.86
2023-02-04T10:18:18.800Z,10.09
2023-02-04T10:23:22.463Z,10.05
2023-02-04T10:28:35.104Z,9.78
2023-02-04T10:33:40.036Z,9.97
2023-02-04T10:38:43.079Z,9.95
2023-02-04T10:43:46.110Z,10.29
2023-02-04T10:48:50.860Z,10.60
2023-02-04T10:54:12.953Z,10.67
2023-02-04T10:59:26.792Z,10.59
2023-02-04T11:04:31.199Z,10.67
2023-02-04T11:09:34.271Z,10.86
2023-02-04T11:14:37.269Z,11.09
2023-02-04T11:19:43.704Z,11.12
2023-02-04T11:24:46.735Z,11.08
2023-02-04T11:29:50.183Z,11.18
2023-02-04T11:34:57.356Z,11.37
2023-02-04T11:40:02.286Z,11.66
2023-02-04T11:45:15.430Z,11.60
2023-02-04T11:50:24.953Z,11.58
2023-02-04T11:55:28.271Z,11.58
2023-02-04T12:00:33.997Z,11.84
2023-02-04T12:05:41.952Z,12.08
2023-02-04T12:10:50.876Z,12.33
2023-02-04T12:15:59.118Z,12.37
2023-02-04T12:21:05.012Z,12.39
2023-02-04T12:26:09.479Z,12.44
2023-02-04T12:31:15.477Z,12.45
2023-02-04T12:36:20.068Z,12.60
2023-02-04T12:41:23.560Z,12.78
2023-02-04T12:46:26.535Z,12.64
2023-02-04T12:51:30.920Z,12.36
2023-02-04T12:56:34.009Z,12.05
2023-02-04T13:01:37.081Z,12.07
2023-02-04T13:06:41.598Z,11.99
2023-02-04T13:11:44.652Z,12.10
2023-02-04T13:16:47.656Z,12.11
2023-02-04T13:21:52.069Z,12.10
2023-02-04T13:26:55.147Z,12.12
2023-02-04T13:31:58.238Z,12.06
2023-02-04T13:37:02.761Z,12.14
2023-02-04T13:42:07.166Z,12.22
2023-02-04T13:47:10.215Z,12.16
2023-02-04T13:52:14.623Z,12.20
2023-02-04T13:57:17.992Z,12.36
2023-02-04T14:02:23.637Z,12.36
2023-02-04T14:07:28.314Z,12.48
2023-02-04T14:12:31.406Z,12.61
2023-02-04T14:17:34.414Z,12.53
2023-02-04T14:22:39.040Z,12.33
2023-02-04T14:27:42.755Z,12.15
2023-02-04T14:32:45.861Z,12.03
2023-02-04T14:37:50.408Z,11.83
2023-02-04T14:42:53.722Z,11.65
2023-02-04T14:47:57.136Z,11.51
2023-02-04T14:53:01.577Z,11.24
2023-02-04T14:58:04.717Z,10.80
2023-02-04T15:03:07.741Z,10.84
2023-02-04T15:08:12.213Z,11.07
2023-02-04T15:13:15.339Z,11.08
2023-02-04T15:18:18.428Z,11.05
2023-02-04T15:23:22.914Z,10.97
2023-02-04T15:28:27.924Z,10.91
2023-02-04T15:33:31.108Z,10.88
2023-02-04T15:38:35.591Z,10.77
2023-02-04T15:43:38.940Z,10.71
2023-02-04T15:48:42.040Z,10.57
2023-02-04T15:53:46.484Z,10.56
2023-02-04T15:58:49.653Z,10.44
2023-02-04T16:03:56.440Z,10.41
2023-02-04T16:09:00.878Z,10.37
2023-02-04T16:14:03.975Z,10.33
2023-02-04T16:19:07.292Z,10.25
2023-02-04T16:24:13.206Z,10.08
2023-02-04T16:29:16.619Z,9.88
2023-02-04T16:34:19.710Z,9.76
2023-02-04T16:39:24.470Z,9.82
2023-02-04T16:44:27.593Z,9.72
2023-02-04T16:49:30.724Z,9.75
2023-02-04T16:54:35.848Z,9.67
2023-02-04T16:59:39.221Z,9.58
2023-02-04T17:04:42.446Z,9.53
2023-02-04T17:09:46.957Z,9.51
2023-02-04T17:14:50.036Z,9.42
2023-02-04T17:19:52.931Z,9.39
2023-02-04T17:24:57.271Z,9.35
2023-02-04T17:30:00.347Z,9.30
2023-02-04T17:35:03.623Z,9.31
2023-02-04T17:40:13.008Z,9.29
2023-02-04T17:45:16.768Z,9.28
2023-02-04T17:50:20.282Z,9.29
2023-02-04T17:55:28.515Z,9.27
2023-02-04T18:00:33.147Z,9.22
2023-02-04T18:05:36.803Z,9.23
2023-02-04T18:10:43.783Z,9.19
2023-02-04T18:15:49.434Z,9.20
2023-02-04T18:21:00.375Z,9.20
2023-02-04T18:26:13.138Z,9.19
2023-02-04T18:31:29.833Z,9.16
2023-02-04T18:36:34.653Z,9.14
2023-02-04T18:41:41.508Z,9.08
2023-02-04T18:46:49.305Z,9.14
2023-02-04T18:51:52.962Z,9.11
2023-02-04T18:57:05.592Z,9.09
2023-02-04T19:02:30.574Z,9.06
2023-02-04T19:07:36.090Z,9.03
2023-02-04T19:12:40.429Z,9.01
2023-02-04T19:17:43.817Z,9.01
2023-02-04T19:22:49.795Z,8.95
2023-02-04T19:27:56.121Z,8.85
2023-02-04T19:33:00.416Z,8.76
2023-02-04T19:38:27.493Z,8.71
2023-02-04T19:43:37.603Z,8.72
2023-02-04T19:48:40.834Z,8.69
2023-02-04T19:53:46.346Z,8.61
2023-02-04T19:58:52.939Z,8.54
2023-02-04T20:04:01.094Z,8.43
2023-02-04T20:09:07.763Z,8.41
2023-02-04T20:14:24.270Z,8.34
2023-02-04T20:19:29.956Z,8.33
2023-02-04T20:24:36.905Z,8.31
2023-02-04T20:29:41.239Z,8.25
2023-02-04T20:34:44.373Z,8.32
2023-02-04T20:39:47.456Z,8.27
2023-02-04T20:44:52.301Z,8.31
2023-02-04T20:49:57.201Z,8.29
2023-02-04T20:55:02.197Z,8.16
2023-02-04T21:00:14.896Z,8.10
2023-02-04T21:05:24.618Z,8.11
2023-02-04T21:10:27.724Z,8.13
2023-02-04T21:15:34.182Z,8.12
2023-02-04T21:20:37.363Z,8.13
2023-02-04T21:25:40.390Z,8.18
2023-02-04T21:30:44.936Z,8.24
2023-02-04T21:35:48.093Z,8.23
2023-02-04T21:40:51.250Z,8.22
2023-02-04T21:45:55.910Z,8.20
2023-02-04T21:50:59.004Z,8.20
2023-02-04T21:56:02.270Z,8.23
2023-02-04T22:01:07.413Z,8.25
2023-02-04T22:06:10.406Z,8.25
2023-02-04T22:11:13.465Z,8.29
2023-02-04T22:16:17.951Z,8.19
2023-02-04T22:21:21.266Z,8.15
2023-02-04T22:26:24.270Z,8.10
2023-02-04T22:31:28.643Z,8.10
2023-02-04T22:36:31.886Z,8.02
2023-02-04T22:41:35.017Z,8.07
2023-02-04T22:46:39.518Z,8.08
2023-02-04T22:51:42.982Z,8.10
2023-02-04T22:56:46.226Z,8.17
2023-02-04T23:01:50.781Z,8.15
2023-02-04T23:06:54.066Z,8.10
2023-02-04T23:11:58.095Z,8.08
2023-02-04T23:17:02.400Z,8.16
2023-02-04T23:22:06.559Z,8.16
2023-02-04T23:27:11.409Z,7.63
2023-02-04T23:32:15.825Z,8.10
2023-02-04T23:37:18.940Z,8.05
2023-02-04T23:42:22.015Z,7.96
2023-02-04T23:47:26.387Z,7.97
2023-02-04T23:52:29.465Z,7.97
2023-02-04T23:57:32.461Z,7.99
